Time;durP1;ratioP1;P1;durP2;ratioP2;P2;SDS_P1;SDS_P2;PMS_P1;PMS_P2;Temp;Humidity;BMP_temperature;BMP_pressure;BME280_temperature;BME280_humidity;BME280_pressure;Samples;Min_cycle;Max_cycle;Signal;HPM_P1;HPM_P2
2022/06/26 00:01:01;;;;;;;514.35;53.75;;;15.90;99.90;;;;;;5075307;28;20052;-24
2022/06/26 00:03:27;;;;;;;188.82;31.23;;;15.80;99.90;;;;;;5075791;28;20050;-24
2022/06/26 00:05:54;;;;;;;218.13;32.38;;;15.80;99.90;;;;;;5074857;28;20217;-24
2022/06/26 00:08:21;;;;;;;694.70;67.32;;;15.80;99.90;;;;;;5074207;28;20044;-24
2022/06/26 00:10:47;;;;;;;31.27;26.85;;;15.80;99.90;;;;;;5075142;28;20048;-24
2022/06/26 00:13:14;;;;;;;41.25;32.45;;;15.80;99.90;;;;;;5075744;28;20045;-24
2022/06/26 00:15:40;;;;;;;35.00;30.98;;;15.80;99.90;;;;;;5075037;28;20067;-24
2022/06/26 00:18:06;;;;;;;41.63;33.40;;;15.80;99.90;;;;;;5074579;28;20416;-24
2022/06/26 00:20:32;;;;;;;57.08;37.78;;;15.80;99.90;;;;;;5074927;28;20056;-24
2022/06/26 00:22:58;;;;;;;35.60;30.60;;;15.80;99.90;;;;;;5075442;28;20055;-24
2022/06/26 00:25:24;;;;;;;36.65;30.65;;;15.80;99.90;;;;;;5074184;28;20600;-24
2022/06/26 00:27:50;;;;;;;45.97;35.45;;;15.80;99.90;;;;;;5074759;28;20033;-24
2022/06/26 00:30:15;;;;;;;56.92;40.95;;;15.80;99.90;;;;;;5075287;28;20490;-24
2022/06/26 00:32:41;;;;;;;60.65;42.25;;;15.90;99.90;;;;;;5073674;28;20090;-24
2022/06/26 00:35:09;;;;;;;49.08;38.70;;;15.80;99.90;;;;;;5073691;28;20078;-24
2022/06/26 00:37:35;;;;;;;46.67;37.40;;;15.90;99.90;;;;;;5074454;28;20127;-24
2022/06/26 00:40:01;;;;;;;66.28;45.58;;;16.00;99.90;;;;;;5074484;28;20048;-24
2022/06/26 00:42:27;;;;;;;59.35;42.47;;;16.00;99.90;;;;;;5074489;28;20058;-24
2022/06/26 00:44:55;;;;;;;58.15;41.25;;;16.00;99.90;;;;;;5074396;28;20054;-24
2022/06/26 00:47:22;;;;;;;116.22;45.25;;;16.00;99.90;;;;;;5073410;28;20101;-24
2022/06/26 00:49:48;;;;;;;841.38;92.55;;;16.10;99.90;;;;;;5074262;28;20478;-24
2022/06/26 00:52:16;;;;;;;1110.00;111.60;;;16.00;99.90;;;;;;5074287;28;20048;-24
2022/06/26 00:54:41;;;;;;;353.60;39.08;;;15.90;99.90;;;;;;5074436;28;20037;-24
2022/06/26 00:57:07;;;;;;;882.90;92.75;;;15.90;99.90;;;;;;5072867;28;20063;-24
2022/06/26 00:59:33;;;;;;;344.02;52.40;;;15.80;99.90;;;;;;5073246;28;20098;-24
2022/06/26 01:01:59;;;;;;;80.25;41.70;;;15.70;99.90;;;;;;5074726;28;20037;-24
2022/06/26 01:04:25;;;;;;;68.93;46.63;;;16.00;99.90;;;;;;5073903;28;20094;-24
2022/06/26 01:06:51;;;;;;;59.47;42.60;;;16.20;99.90;;;;;;5073032;28;20441;-24
2022/06/26 01:09:18;;;;;;;60.08;39.55;;;16.60;99.90;;;;;;5072901;28;20048;-24
2022/06/26 01:11:44;;;;;;;50.17;39.00;;;16.70;99.90;;;;;;5074006;28;20072;-24
2022/06/26 01:14:10;;;;;;;55.47;39.88;;;16.80;99.90;;;;;;5073909;28;20045;-23
2022/06/26 01:16:38;;;;;;;48.78;32.45;;;16.90;99.90;;;;;;5073519;28;20571;-24
2022/06/26 01:19:06;;;;;;;45.88;34.75;;;16.90;99.90;;;;;;5073886;28;20053;-24
2022/06/26 01:21:37;;;;;;;45.95;29.75;;;16.90;99.90;;;;;;5074114;28;20422;-23
2022/06/26 01:24:04;;;;;;;48.85;31.85;;;16.90;99.90;;;;;;5073923;28;20041;-24
2022/06/26 01:26:31;;;;;;;37.13;26.13;;;16.90;99.90;;;;;;5073820;28;20076;-24
2022/06/26 01:28:57;;;;;;;36.42;24.67;;;16.90;99.90;;;;;;5072691;28;20051;-24
2022/06/26 01:31:22;;;;;;;35.92;25.10;;;16.90;99.90;;;;;;5073812;28;20048;-24
2022/06/26 01:33:49;;;;;;;42.35;30.85;;;16.90;99.90;;;;;;5073751;28;20084;-24
2022/06/26 01:36:16;;;;;;;40.65;26.40;;;16.90;99.90;;;;;;5073532;28;20387;-24
2022/06/26 01:38:42;;;;;;;33.50;22.60;;;16.80;99.90;;;;;;5073395;28;20044;-24
2022/06/26 01:41:08;;;;;;;31.55;21.63;;;16.80;99.90;;;;;;5073729;28;20479;-24
2022/06/26 01:43:37;;;;;;;37.72;25.88;;;16.70;99.90;;;;;;5073924;28;20106;-24
2022/06/26 01:46:05;;;;;;;35.47;22.80;;;16.70;99.90;;;;;;5073609;28;20075;-24
2022/06/26 01:48:32;;;;;;;36.33;24.45;;;16.60;99.90;;;;;;5073598;28;20127;-24
2022/06/26 01:51:00;;;;;;;37.42;24.25;;;16.50;99.90;;;;;;5072606;28;20044;-23
2022/06/26 01:53:27;;;;;;;30.85;20.85;;;16.50;99.90;;;;;;5073803;28;20071;-24
2022/06/26 01:55:53;;;;;;;31.92;21.35;;;16.40;99.90;;;;;;5073435;28;20098;-24
2022/06/26 01:58:19;;;;;;;40.17;22.27;;;16.40;99.90;;;;;;5072386;28;20127;-24
2022/06/26 02:00:46;;;;;;;31.15;23.33;;;16.40;99.90;;;;;;5072306;28;20082;-24
2022/06/26 02:03:13;;;;;;;31.60;23.52;;;16.30;99.90;;;;;;5073975;28;20391;-24
2022/06/26 02:05:39;;;;;;;39.83;23.52;;;16.30;99.90;;;;;;5072344;28;20456;-24
2022/06/26 02:08:05;;;;;;;38.40;24.13;;;16.30;99.90;;;;;;5073391;28;20055;-24
2022/06/26 02:16:12;;;;;;;27.60;20.35;;;16.30;99.90;;;;;;5073557;28;20052;-24
2022/06/26 02:18:40;;;;;;;34.40;22.15;;;16.30;99.90;;;;;;5073363;28;20059;-24
2022/06/26 02:21:08;;;;;;;38.30;21.50;;;16.30;99.90;;;;;;5073350;28;20041;-24
2022/06/26 02:23:35;;;;;;;31.30;22.65;;;16.30;99.90;;;;;;5074360;28;20113;-24
2022/06/26 02:26:01;;;;;;;33.08;23.50;;;16.30;99.90;;;;;;5072037;28;20052;-24
2022/06/26 02:28:26;;;;;;;35.45;20.75;;;16.40;99.90;;;;;;5073066;28;20059;-23
2022/06/26 02:30:52;;;;;;;23.10;17.45;;;16.40;99.90;;;;;;5073198;28;20397;-24
2022/06/26 02:33:19;;;;;;;22.13;16.55;;;16.40;99.90;;;;;;5055310;28;20054;-24
2022/06/26 02:35:47;;;;;;;29.13;18.83;;;16.40;99.90;;;;;;5072837;28;20483;-24
2022/06/26 02:38:12;;;;;;;29.67;20.02;;;16.50;99.90;;;;;;5073037;28;20036;-23
2022/06/26 02:40:38;;;;;;;28.40;19.63;;;16.50;99.90;;;;;;5072173;28;20056;-23
2022/06/26 02:43:04;;;;;;;28.58;17.33;;;16.50;99.90;;;;;;5073636;28;20474;-21
2022/06/26 02:45:29;;;;;;;25.85;15.93;;;16.50;99.90;;;;;;5073125;28;20127;-20
2022/06/26 02:47:55;;;;;;;18.77;13.70;;;16.40;99.90;;;;;;5073620;28;20063;-19
2022/06/26 02:50:21;;;;;;;14.27;11.50;;;16.40;99.90;;;;;;5077247;28;20119;-19
2022/06/26 02:52:47;;;;;;;21.20;16.02;;;16.40;99.90;;;;;;5076348;28;20048;-19
2022/06/26 02:55:13;;;;;;;24.92;18.52;;;16.40;99.90;;;;;;5075391;28;20393;-20
2022/06/26 02:57:39;;;;;;;19.08;14.18;;;16.40;99.90;;;;;;5076583;28;20071;-19
2022/06/26 03:00:07;;;;;;;22.67;16.67;;;16.40;99.90;;;;;;5076535;28;20040;-19
2022/06/26 03:02:32;;;;;;;23.98;17.63;;;16.40;99.90;;;;;;5075274;28;20040;-19
2022/06/26 03:04:58;;;;;;;24.42;17.00;;;16.40;99.90;;;;;;5076421;28;20044;-19
2022/06/26 03:07:24;;;;;;;20.08;15.15;;;16.30;99.90;;;;;;5075020;28;20101;-20
2022/06/26 03:09:49;;;;;;;20.27;14.55;;;16.30;99.90;;;;;;5076013;28;20052;-19
2022/06/26 03:12:15;;;;;;;18.27;14.30;;;16.40;99.90;;;;;;5076867;28;20374;-20
2022/06/26 03:14:41;;;;;;;24.67;14.80;;;16.30;99.90;;;;;;5076181;28;20056;-20
2022/06/26 03:17:06;;;;;;;19.05;14.02;;;16.30;99.90;;;;;;5076709;28;20102;-20
2022/06/26 03:19:32;;;;;;;17.15;12.25;;;16.30;99.90;;;;;;5075479;28;20056;-19
2022/06/26 03:21:58;;;;;;;20.27;12.55;;;16.30;99.90;;;;;;5075188;28;20040;-19
2022/06/26 03:24:24;;;;;;;16.95;13.27;;;16.20;99.90;;;;;;5076069;28;20050;-19
2022/06/26 03:26:50;;;;;;;20.42;13.20;;;16.20;99.90;;;;;;5075707;28;20040;-20
2022/06/26 03:29:15;;;;;;;16.02;11.80;;;16.20;99.90;;;;;;5076812;28;20426;-20
2022/06/26 03:31:41;;;;;;;17.85;10.88;;;16.20;99.90;;;;;;5076483;28;20473;-20
2022/06/26 03:34:07;;;;;;;17.80;10.68;;;16.20;99.90;;;;;;5074732;28;20170;-20
2022/06/26 03:36:33;;;;;;;12.57;8.73;;;16.20;99.90;;;;;;5075783;28;20040;-20
2022/06/26 03:38:59;;;;;;;10.95;8.65;;;16.20;99.90;;;;;;5074889;28;20052;-20
2022/06/26 03:41:25;;;;;;;14.25;9.20;;;16.20;99.90;;;;;;5076282;28;20055;-20
2022/06/26 03:43:51;;;;;;;8.50;6.68;;;16.20;99.90;;;;;;5075750;28;20094;-20
2022/06/26 03:46:17;;;;;;;8.93;7.90;;;16.30;99.90;;;;;;5074530;28;20037;-20
2022/06/26 03:48:44;;;;;;;9.85;7.07;;;16.30;99.90;;;;;;5075639;28;20048;-20
2022/06/26 03:51:09;;;;;;;8.20;5.75;;;16.30;99.90;;;;;;5075590;28;20379;-20
2022/06/26 03:53:36;;;;;;;7.22;5.78;;;16.30;99.90;;;;;;5075531;28;20047;-20
2022/06/26 03:56:03;;;;;;;6.82;5.97;;;16.30;99.90;;;;;;5075416;28;20083;-20
2022/06/26 03:58:28;;;;;;;8.80;5.72;;;16.40;99.90;;;;;;5075312;28;20049;-20
2022/06/26 04:00:54;;;;;;;7.13;5.93;;;16.50;99.90;;;;;;5074414;28;20493;-20
2022/06/26 04:03:20;;;;;;;10.30;6.72;;;16.50;99.90;;;;;;5075373;28;20091;-20
2022/06/26 04:05:47;;;;;;;7.78;5.63;;;16.50;99.90;;;;;;5075305;28;20147;-20
2022/06/26 04:08:13;;;;;;;17.42;7.45;;;16.50;99.90;;;;;;5076088;28;20071;-20
2022/06/26 04:10:40;;;;;;;8.55;5.65;;;16.50;99.90;;;;;;5076007;28;20045;-20
2022/06/26 04:13:08;;;;;;;10.25;6.43;;;16.50;99.90;;;;;;5057466;28;20084;-21
2022/06/26 04:15:37;;;;;;;9.55;5.70;;;16.50;99.90;;;;;;5075078;28;20044;-20
2022/06/26 04:18:04;;;;;;;7.35;5.00;;;16.50;99.90;;;;;;5073807;28;20047;-20
2022/06/26 04:20:30;;;;;;;8.05;6.20;;;16.50;99.90;;;;;;5075548;28;20389;-20
2022/06/26 04:22:59;;;;;;;7.95;4.07;;;16.50;99.90;;;;;;5074923;28;20044;-20
2022/06/26 04:25:27;;;;;;;7.85;5.30;;;16.60;99.90;;;;;;5074848;28;20044;-20
2022/06/26 04:27:53;;;;;;;7.95;6.05;;;16.60;99.90;;;;;;5058020;28;20083;-20
2022/06/26 04:30:19;;;;;;;6.38;5.47;;;16.60;99.90;;;;;;5074783;28;20080;-20
2022/06/26 04:32:45;;;;;;;7.57;6.03;;;16.60;99.90;;;;;;5056883;28;20049;-20
2022/06/26 04:35:11;;;;;;;11.80;6.20;;;16.60;99.90;;;;;;5075280;28;20056;-20
2022/06/26 04:37:37;;;;;;;9.00;5.43;;;16.60;99.90;;;;;;5073316;28;20493;-20
2022/06/26 04:40:05;;;;;;;7.50;6.00;;;16.70;99.90;;;;;;5074848;28;20048;-20
2022/06/26 04:42:31;;;;;;;9.95;5.60;;;16.70;99.90;;;;;;5074579;28;20052;-21
2022/06/26 04:44:57;;;;;;;7.80;5.32;;;16.70;99.90;;;;;;5074754;28;20359;-20
2022/06/26 04:47:23;;;;;;;8.82;5.90;;;16.70;99.90;;;;;;5074435;28;20037;-20
2022/06/26 04:49:49;;;;;;;9.15;5.72;;;16.80;99.90;;;;;;5074453;28;20040;-20
2022/06/26 04:52:15;;;;;;;6.45;4.63;;;16.80;99.90;;;;;;5074649;28;20125;-21
2022/06/26 04:54:42;;;;;;;8.95;5.70;;;16.80;99.90;;;;;;5074320;28;20559;-21
2022/06/26 04:57:08;;;;;;;6.63;4.97;;;16.80;99.90;;;;;;5073482;28;20048;-20
2022/06/26 04:59:34;;;;;;;8.30;4.55;;;16.80;99.90;;;;;;5074229;28;20049;-21
2022/06/26 05:02:00;;;;;;;5.97;5.18;;;16.80;99.90;;;;;;5074465;28;20054;-21
2022/06/26 05:04:25;;;;;;;7.82;5.40;;;16.80;99.90;;;;;;5074970;28;20543;-21
2022/06/26 05:06:51;;;;;;;9.98;5.43;;;16.90;99.90;;;;;;5074480;28;20565;-21
2022/06/26 05:09:17;;;;;;;8.07;5.97;;;17.00;99.90;;;;;;5073138;28;20052;-21
2022/06/26 05:11:44;;;;;;;7.43;6.03;;;17.00;99.90;;;;;;5074681;28;20353;-21
2022/06/26 05:14:10;;;;;;;9.52;6.05;;;17.10;99.90;;;;;;5073951;28;20049;-21
2022/06/26 05:16:35;;;;;;;6.82;4.93;;;17.10;99.90;;;;;;5073903;28;20047;-21
2022/06/26 05:19:02;;;;;;;8.68;6.45;;;17.40;99.90;;;;;;5073668;28;20044;-21
2022/06/26 05:21:27;;;;;;;8.68;6.93;;;17.90;99.90;;;;;;5073937;28;20052;-21
2022/06/26 05:23:53;;;;;;;8.70;6.10;;;18.30;99.90;;;;;;5072883;28;20419;-21
2022/06/26 05:26:19;;;;;;;10.48;6.82;;;18.40;99.90;;;;;;5072740;28;20132;-21
2022/06/26 05:28:45;;;;;;;7.03;6.25;;;18.50;33.20;;;;;;5073839;28;20087;-21
2022/06/26 05:31:10;;;;;;;11.23;7.97;;;18.30;1.00;;;;;;5073814;28;20087;-21
2022/06/26 05:33:36;;;;;;;9.85;7.45;;;18.10;1.00;;;;;;5073797;28;20045;-21
2022/06/26 05:36:02;;;;;;;10.85;9.20;;;17.90;1.00;;;;;;5073653;28;20131;-21
2022/06/26 05:38:28;;;;;;;12.95;9.52;;;17.80;1.00;;;;;;5073695;28;20053;-21
2022/06/26 05:40:53;;;;;;;11.70;8.77;;;17.70;1.00;;;;;;5074530;28;20045;-21
2022/06/26 05:43:19;;;;;;;16.55;10.77;;;17.70;17.70;;;;;;5073942;28;20417;-21
2022/06/26 05:45:45;;;;;;;11.95;10.48;;;17.70;78.10;;;;;;5073502;28;20155;-21
2022/06/26 05:48:11;;;;;;;14.50;11.32;;;17.70;99.90;;;;;;5073884;28;20045;-21
2022/06/26 05:50:36;;;;;;;12.25;10.98;;;17.70;99.90;;;;;;5074142;28;20044;-21
2022/06/26 05:53:02;;;;;;;13.82;11.30;;;17.70;99.90;;;;;;5072393;28;20105;-21
2022/06/26 05:55:28;;;;;;;18.02;13.82;;;17.70;99.90;;;;;;5055938;28;20047;-21
2022/06/26 05:57:54;;;;;;;13.32;11.93;;;17.70;99.90;;;;;;5072744;28;20477;-22
2022/06/26 06:00:19;;;;;;;12.88;10.73;;;17.80;99.90;;;;;;5073197;28;20124;-21
2022/06/26 06:02:46;;;;;;;13.18;10.15;;;17.80;99.90;;;;;;5072285;28;20090;-21
2022/06/26 06:05:12;;;;;;;16.00;11.23;;;17.90;99.90;;;;;;5073302;28;20059;-22
2022/06/26 06:07:38;;;;;;;12.20;9.65;;;17.80;99.90;;;;;;5073292;28;20053;-21
2022/06/26 06:10:07;;;;;;;12.93;10.40;;;17.80;99.90;;;;;;5073939;28;20045;-21
2022/06/26 06:12:33;;;;;;;11.75;10.27;;;17.90;99.90;;;;;;5073295;28;20052;-22
2022/06/26 06:15:00;;;;;;;13.20;10.82;;;17.90;91.90;;;;;;5073366;28;20055;-21
2022/06/26 06:17:37;;;;;;;14.35;12.20;;;17.90;71.80;;;;;;5073777;28;20125;-22
2022/06/26 06:20:25;;;;;;;18.40;14.98;;;18.00;69.80;;;;;;5073642;28;20040;-22
2022/06/26 06:22:54;;;;;;;16.15;13.57;;;18.10;23.70;;;;;;5074443;28;20052;-22
2022/06/26 06:25:23;;;;;;;18.13;15.07;;;18.20;10.40;;;;;;5076519;28;20056;-22
2022/06/26 06:27:49;;;;;;;18.20;16.38;;;18.20;1.00;;;;;;5077196;28;20044;-22
2022/06/26 06:30:15;;;;;;;16.67;14.98;;;18.10;1.00;;;;;;5076804;28;20513;-22
2022/06/26 06:32:46;;;;;;;17.17;15.32;;;18.10;1.00;;;;;;5059355;28;20048;-22
2022/06/26 06:35:13;;;;;;;15.20;13.68;;;18.00;1.00;;;;;;5077057;28;20033;-22
2022/06/26 06:37:40;;;;;;;20.52;17.10;;;17.90;1.00;;;;;;5076958;28;20131;-22
2022/06/26 06:40:07;;;;;;;14.18;12.05;;;17.90;1.00;;;;;;5059761;28;20063;-22
2022/06/26 06:42:33;;;;;;;14.98;13.30;;;17.80;1.00;;;;;;5076950;28;20058;-22
2022/06/26 06:44:59;;;;;;;18.45;15.68;;;17.80;1.00;;;;;;5076849;28;20126;-22
2022/06/26 06:47:25;;;;;;;19.15;13.55;;;17.80;1.00;;;;;;5077081;28;20448;-22
2022/06/26 06:49:50;;;;;;;13.60;12.13;;;17.80;1.00;;;;;;5076752;28;20123;-22
2022/06/26 06:52:16;;;;;;;23.70;19.30;;;17.80;1.00;;;;;;5077532;28;20051;-22
2022/06/26 06:54:42;;;;;;;28.08;19.70;;;17.80;1.00;;;;;;5076384;28;20394;-22
2022/06/26 06:57:07;;;;;;;25.50;21.10;;;17.70;1.00;;;;;;5077078;28;20037;-22
2022/06/26 06:59:33;;;;;;;20.70;18.27;;;17.60;1.00;;;;;;5076586;28;20063;-22
2022/06/26 07:01:59;;;;;;;21.05;18.02;;;17.60;1.00;;;;;;5076488;28;20409;-22
2022/06/26 07:04:25;;;;;;;23.13;20.50;;;17.60;1.00;;;;;;5074950;28;20079;-22
2022/06/26 07:06:50;;;;;;;23.85;19.65;;;17.70;1.00;;;;;;5074995;28;20052;-22
2022/06/26 07:09:16;;;;;;;25.15;22.48;;;17.70;1.00;;;;;;5077206;28;20052;-21
2022/06/26 07:11:43;;;;;;;24.50;21.92;;;17.80;1.00;;;;;;5076342;28;20059;-22
2022/06/26 07:14:09;;;;;;;25.35;22.60;;;17.90;1.00;;;;;;5075843;28;20425;-22
2022/06/26 07:16:35;;;;;;;24.05;20.92;;;17.90;1.00;;;;;;5076165;28;20044;-22
2022/06/26 07:19:02;;;;;;;28.33;24.02;;;18.00;1.00;;;;;;5076061;28;20057;-22
2022/06/26 07:21:28;;;;;;;25.20;21.20;;;18.20;1.00;;;;;;5076406;28;20398;-22
2022/06/26 07:23:54;;;;;;;23.55;19.90;;;18.30;99.90;;;;;;5076149;28;20040;-22
2022/06/26 07:26:19;;;;;;;24.98;19.67;;;18.30;99.90;;;;;;5076101;28;20044;-22
2022/06/26 07:28:51;;;;;;;22.13;19.27;;;18.20;99.90;;;;;;5075480;28;20056;-22
2022/06/26 07:31:17;;;;;;;19.95;16.45;;;18.10;99.90;;;;;;5076051;28;20051;-23
2022/06/26 07:36:29;;;;;;;23.98;17.63;;;18.20;1.00;;;;;;5076439;28;20427;-22
2022/06/26 07:38:55;;;;;;;21.73;18.83;;;18.40;99.90;;;;;;5076683;28;20040;-22
2022/06/26 07:41:21;;;;;;;19.42;16.30;;;18.60;99.90;;;;;;5075078;28;20055;-22
2022/06/26 07:43:47;;;;;;;19.10;15.30;;;19.40;80.30;;;;;;5075767;28;20048;-22
2022/06/26 07:46:13;;;;;;;20.92;18.30;;;20.10;99.90;;;;;;5075707;28;20044;-22
2022/06/26 07:48:39;;;;;;;21.23;18.95;;;20.60;99.90;;;;;;5075685;28;20056;-22
2022/06/26 07:51:07;;;;;;;17.77;15.93;;;20.70;93.30;;;;;;5074403;28;20097;-22
2022/06/26 07:53:32;;;;;;;18.48;16.25;;;20.70;99.90;;;;;;5075564;28;20398;-22
2022/06/26 07:56:00;;;;;;;16.25;13.85;;;21.20;1.00;;;;;;5076081;28;20048;-22
2022/06/26 07:58:26;;;;;;;16.77;14.95;;;21.00;1.00;;;;;;5075408;28;20470;-22
2022/06/26 08:00:52;;;;;;;13.77;12.40;;;20.60;1.00;;;;;;5075706;28;20185;-22
2022/06/26 08:03:18;;;;;;;13.60;11.45;;;20.60;1.00;;;;;;5075369;28;20084;-23
2022/06/26 08:05:44;;;;;;;14.50;11.50;;;20.90;1.00;;;;;;5075243;28;20060;-23
2022/06/26 08:08:10;;;;;;;14.65;13.02;;;21.30;1.00;;;;;;5075192;28;20463;-23
2022/06/26 08:10:39;;;;;;;12.73;11.52;;;21.40;99.90;;;;;;5076055;28;20068;-23
2022/06/26 08:13:06;;;;;;;8.57;6.28;;;21.40;99.90;;;;;;5075058;28;20127;-23
2022/06/26 08:15:32;;;;;;;6.75;6.05;;;21.70;1.00;;;;;;5075937;28;20066;-23
2022/06/26 08:18:00;;;;;;;9.25;7.30;;;21.50;1.00;;;;;;5075595;28;20040;-23
2022/06/26 08:20:26;;;;;;;8.07;5.72;;;21.30;1.00;;;;;;5075598;28;20398;-23
2022/06/26 08:22:54;;;;;;;9.73;5.97;;;21.60;1.00;;;;;;5075517;28;20127;-23
2022/06/26 08:25:20;;;;;;;8.98;5.78;;;21.50;1.00;;;;;;5074946;28;20080;-23
2022/06/26 08:27:48;;;;;;;7.38;5.30;;;21.00;1.00;;;;;;5074213;28;20460;-23
2022/06/26 08:30:16;;;;;;;12.15;6.30;;;20.40;2.60;;;;;;5073683;28;20469;-23
2022/06/26 08:32:43;;;;;;;7.13;6.43;;;19.90;99.90;;;;;;5075056;28;20119;-23
2022/06/26 08:35:10;;;;;;;8.48;6.38;;;19.90;99.90;;;;;;5074742;28;20048;-23
2022/06/26 08:37:37;;;;;;;8.32;6.05;;;20.40;99.90;;;;;;5074612;28;20127;-23
2022/06/26 08:40:05;;;;;;;9.98;7.10;;;20.50;99.90;;;;;;5075485;28;20051;-23
2022/06/26 08:42:40;;;;;;;7.38;5.80;;;20.20;99.90;;;;;;5073488;28;20070;-23
2022/06/26 08:45:06;;;;;;;4.35;3.17;;;20.40;23.90;;;;;;5073678;28;20040;-23
2022/06/26 08:47:37;;;;;;;5.35;3.42;;;21.30;1.00;;;;;;5074123;28;20044;-23
2022/06/26 08:50:07;;;;;;;7.63;3.42;;;21.30;99.90;;;;;;5074478;28;20045;-23
2022/06/26 08:52:40;;;;;;;8.15;4.75;;;21.50;99.90;;;;;;5074343;28;20109;-23
2022/06/26 08:55:08;;;;;;;5.95;4.15;;;21.70;99.90;;;;;;5074418;28;20048;-23
2022/06/26 08:57:34;;;;;;;6.53;4.75;;;22.30;99.90;;;;;;5074204;28;20044;-23
2022/06/26 09:00:00;;;;;;;8.02;5.07;;;22.80;99.90;;;;;;5074333;28;20055;-23
2022/06/26 09:02:26;;;;;;;4.13;2.63;;;22.50;99.90;;;;;;5074223;28;20049;-23
2022/06/26 09:04:52;;;;;;;6.03;2.78;;;21.60;1.00;;;;;;5074190;28;20131;-23
2022/06/26 09:07:18;;;;;;;3.78;2.20;;;20.90;99.90;;;;;;5072807;28;20080;-23
2022/06/26 09:09:44;;;;;;;2.25;2.00;;;20.60;99.90;;;;;;5072917;28;20044;-23
2022/06/26 09:12:10;;;;;;;4.57;2.53;;;20.50;99.90;;;;;;5074084;28;20055;-23
2022/06/26 09:14:38;;;;;;;4.60;2.70;;;20.90;99.90;;;;;;5073304;28;20102;-23
2022/06/26 09:17:07;;;;;;;3.83;2.63;;;21.50;99.90;;;;;;5074013;28;20047;-23
2022/06/26 09:19:36;;;;;;;4.10;2.95;;;22.20;34.90;;;;;;5072791;28;20123;-23
2022/06/26 09:22:12;;;;;;;6.07;4.45;;;22.60;1.00;;;;;;5073910;28;20067;-24
2022/06/26 09:24:39;;;;;;;3.85;3.42;;;22.80;1.00;;;;;;5074490;28;20382;-24
2022/06/26 09:27:16;;;;;;;2.28;1.50;;;22.40;1.00;;;;;;5073925;28;20048;-24
2022/06/26 09:29:51;;;;;;;4.03;1.52;;;21.50;1.00;;;;;;5073966;28;20049;-23
2022/06/26 09:32:17;;;;;;;4.57;1.05;;;21.50;1.00;;;;;;5072623;28;20060;-23
2022/06/26 09:34:50;;;;;;;3.05;1.60;;;21.90;99.90;;;;;;5073842;28;20044;-24
2022/06/26 09:37:21;;;;;;;3.42;1.33;;;22.40;99.90;;;;;;5073739;28;20040;-24
2022/06/26 09:40:00;;;;;;;3.50;1.23;;;22.60;99.90;;;;;;5073773;28;20132;-24
2022/06/26 09:42:27;;;;;;;3.05;1.00;;;23.30;93.30;;;;;;5074257;28;20044;-24
2022/06/26 09:44:54;;;;;;;3.35;1.30;;;23.60;48.40;;;;;;5072702;28;20060;-24
2022/06/26 09:47:25;;;;;;;2.10;1.38;;;24.00;1.00;;;;;;5074172;28;20121;-24
2022/06/26 09:49:53;;;;;;;3.30;1.70;;;24.00;1.00;;;;;;5073667;28;20056;-24
2022/06/26 09:52:26;;;;;;;3.90;2.03;;;24.20;1.00;;;;;;5073591;28;20079;-24
2022/06/26 09:54:56;;;;;;;3.20;2.28;;;24.10;1.00;;;;;;5073601;28;20044;-24
2022/06/26 09:57:22;;;;;;;4.38;2.40;;;24.10;99.90;;;;;;5072322;28;20127;-24
2022/06/26 09:59:50;;;;;;;3.58;1.98;;;23.70;1.00;;;;;;5077467;28;20048;-24
2022/06/26 10:07:54;;;;;;;3.03;1.35;;;23.20;40.60;;;;;;5078437;28;20048;-24
2022/06/26 10:10:22;;;;;;;5.53;1.75;;;23.00;38.70;;;;;;5077542;28;20055;-24
2022/06/26 10:13:09;;;;;;;3.88;1.67;;;23.00;8.20;;;;;;5077471;28;20123;-23
2022/06/26 10:15:51;;;;;;;4.60;1.98;;;22.90;99.90;;;;;;5077209;28;20057;-24
2022/06/26 10:18:32;;;;;;;2.23;1.03;;;23.30;99.90;;;;;;5077366;28;20493;-24
2022/06/26 10:21:08;;;;;;;3.15;1.27;;;23.80;1.00;;;;;;5078220;28;20067;-24
2022/06/26 10:23:39;;;;;;;2.38;1.27;;;24.20;1.00;;;;;;5077871;28;20051;-24
2022/06/26 10:26:17;;;;;;;5.32;1.33;;;24.20;99.90;;;;;;5077191;28;20048;-24
2022/06/26 10:28:59;;;;;;;7.30;2.30;;;24.20;99.90;;;;;;5077161;28;20048;-24
2022/06/26 10:31:31;;;;;;;4.97;2.25;;;23.50;1.00;;;;;;5076012;28;20505;-24
2022/06/26 10:34:08;;;;;;;2.53;1.50;;;23.20;26.20;;;;;;5077195;28;20055;-24
2022/06/26 10:36:36;;;;;;;4.43;1.83;;;22.80;16.40;;;;;;5076958;28;20045;-24
2022/06/26 10:39:10;;;;;;;4.50;1.65;;;22.60;99.90;;;;;;5076945;28;20482;-24
2022/06/26 10:45:00;;;;;;;2.67;1.20;;;22.90;99.90;;;;;;5076931;28;20557;-24
2022/06/26 10:47:48;;;;;;;4.25;1.40;;;23.30;99.90;;;;;;5075581;28;20494;-24
2022/06/26 10:50:34;;;;;;;3.40;1.60;;;23.20;99.90;;;;;;5076787;28;20530;-24
2022/06/26 10:53:21;;;;;;;4.00;1.70;;;23.00;37.70;;;;;;5077596;28;20432;-24
2022/06/26 10:55:57;;;;;;;4.60;2.10;;;23.10;99.90;;;;;;5077460;28;20078;-24
2022/06/26 10:58:27;;;;;;;6.35;1.83;;;23.20;90.30;;;;;;5076794;28;20485;-24
2022/06/26 11:01:00;;;;;;;4.28;2.35;;;23.40;1.00;;;;;;5076520;28;20094;-24
2022/06/26 11:03:27;;;;;;;4.40;1.65;;;23.80;11.10;;;;;;5076668;28;20068;-24
2022/06/26 11:05:58;;;;;;;3.95;1.70;;;24.20;27.70;;;;;;5075643;28;20056;-24
2022/06/26 11:08:30;;;;;;;3.75;2.20;;;24.30;1.00;;;;;;5076150;28;20045;-24
2022/06/26 11:11:22;;;;;;;4.03;1.70;;;24.30;99.90;;;;;;5077007;28;20047;-24
2022/06/26 11:13:57;;;;;;;2.95;2.00;;;23.90;99.90;;;;;;5076005;28;20398;-24
2022/06/26 11:16:33;;;;;;;4.03;1.58;;;23.90;99.90;;;;;;5075022;28;20057;-24
2022/06/26 11:19:03;;;;;;;4.72;2.00;;;23.70;1.00;;;;;;5075263;28;20554;-24
2022/06/26 11:21:30;;;;;;;4.88;1.63;;;23.90;1.00;;;;;;5075654;28;20131;-24
2022/06/26 11:23:59;;;;;;;5.50;2.10;;;24.30;99.90;;;;;;5076139;28;20053;-24
2022/06/26 11:26:25;;;;;;;5.90;1.95;;;24.80;99.90;;;;;;5076665;28;20424;-24
2022/06/26 11:28:59;;;;;;;3.78;1.70;;;25.10;99.90;;;;;;5076608;28;20048;-24
2022/06/26 11:31:27;;;;;;;2.72;1.30;;;25.90;99.90;;;;;;5074937;28;20525;-25
2022/06/26 11:34:10;;;;;;;3.95;1.27;;;26.60;99.90;;;;;;5075004;28;20056;-25
2022/06/26 11:36:36;;;;;;;4.35;1.38;;;26.50;1.00;;;;;;5076475;28;20045;-25
2022/06/26 11:39:02;;;;;;;2.75;1.17;;;26.20;1.00;;;;;;5075902;28;20056;-25
2022/06/26 11:41:30;;;;;;;3.60;1.35;;;26.70;1.00;;;;;;5075829;28;20049;-25
2022/06/26 11:43:58;;;;;;;3.42;1.30;;;26.90;99.90;;;;;;5076077;28;20044;-25
2022/06/26 11:46:24;;;;;;;3.47;1.60;;;27.20;99.90;;;;;;5074542;28;20496;-25
2022/06/26 11:48:51;;;;;;;2.55;1.52;;;27.00;99.90;;;;;;5076205;28;20131;-24
2022/06/26 11:51:18;;;;;;;4.10;1.50;;;26.60;99.90;;;;;;5075653;28;20080;-25
2022/06/26 11:53:49;;;;;;;3.00;1.50;;;26.30;99.90;;;;;;5076396;28;20095;-25
2022/06/26 11:56:22;;;;;;;5.97;2.13;;;25.80;99.90;;;;;;5075485;28;20041;-25
2022/06/26 11:58:51;;;;;;;4.15;2.25;;;25.50;1.00;;;;;;5075505;28;20048;-25
2022/06/26 12:01:29;;;;;;;2.45;1.55;;;25.00;1.00;;;;;;5075909;28;20048;-24
2022/06/26 12:03:55;;;;;;;6.30;2.03;;;24.70;1.00;;;;;;5075431;28;20471;-25
2022/06/26 12:06:36;;;;;;;3.85;2.20;;;24.30;1.00;;;;;;5074948;28;20063;-24
2022/06/26 12:09:24;;;;;;;5.13;1.75;;;24.30;62.00;;;;;;5075804;28;20132;-25
2022/06/26 12:11:55;;;;;;;4.38;2.10;;;24.50;1.00;;;;;;5075588;28;20129;-25
2022/06/26 12:14:23;;;;;;;2.42;1.13;;;24.30;1.00;;;;;;5074845;28;20505;-25
2022/06/26 12:17:04;;;;;;;3.33;1.75;;;24.10;1.00;;;;;;5075138;28;20111;-25
2022/06/26 12:19:42;;;;;;;4.63;2.15;;;24.40;1.00;;;;;;5074480;28;20048;-24
2022/06/26 12:22:08;;;;;;;3.63;1.83;;;24.40;1.00;;;;;;5073066;28;20044;-25
2022/06/26 12:24:34;;;;;;;5.40;2.40;;;24.40;1.00;;;;;;5073801;28;20043;-25
2022/06/26 12:27:02;;;;;;;4.68;1.50;;;24.50;1.00;;;;;;5074964;28;20043;-25
2022/06/26 12:29:27;;;;;;;5.07;1.52;;;24.60;1.00;;;;;;5074873;28;20051;-25
2022/06/26 12:31:53;;;;;;;4.80;1.20;;;24.50;1.00;;;;;;5075424;28;20466;-25
2022/06/26 12:34:22;;;;;;;4.75;1.20;;;24.70;1.00;;;;;;5074788;28;20056;-25
2022/06/26 12:36:47;;;;;;;4.68;1.20;;;25.00;1.00;;;;;;5074613;28;20123;-25
2022/06/26 12:39:15;;;;;;;2.88;1.27;;;25.10;99.90;;;;;;5074719;28;20087;-25
2022/06/26 12:41:41;;;;;;;2.13;0.90;;;25.10;99.90;;;;;;5074651;28;20406;-25
2022/06/26 12:44:06;;;;;;;3.70;1.02;;;24.60;99.90;;;;;;5074578;28;20041;-25
2022/06/26 12:46:33;;;;;;;3.05;1.10;;;24.40;99.90;;;;;;5074525;28;20131;-24
2022/06/26 12:49:01;;;;;;;4.18;1.50;;;24.40;99.90;;;;;;5074113;28;20051;-25
2022/06/26 12:51:29;;;;;;;4.45;1.77;;;24.50;99.90;;;;;;5074409;28;20479;-25
2022/06/26 12:53:57;;;;;;;3.95;1.38;;;24.70;1.00;;;;;;5074345;28;20052;-25
2022/06/26 12:56:28;;;;;;;3.33;1.65;;;24.80;99.90;;;;;;5074286;28;20433;-25
2022/06/26 12:58:54;;;;;;;3.75;1.90;;;24.70;1.00;;;;;;5075189;28;20044;-25